All Spectrum Aviation - Van Nuys Airport - KVNY

HOME

Van Nuys Tower Recordings

Condor Squadron KVNY Webcam

Visit our Electronics Store

Condor Squadron Webcam - Van Nuys Airport - KVNY
Picture taken: Wed, 18 Jan 2017 05:52:19 -0800
YouTube Channel!    Latest Timelapse Movie    Full Size Image    Regular Size Image    

2017/01/18 12:51 KVNY 181251Z AUTO 00000KT 10SM CLR 06/02 A3013 RMK AO2 SLP202 T00610022

HOME

Van Nuys Tower Recordings

Condor Squadron KVNY Webcam

Visit our Electronics Store